TimeCDT,TemperatureF,Dew PointF,Humidity,Sea Level PressureIn,VisibilityMPH,Wind Direction,Wind SpeedMPH,Gust SpeedMPH,PrecipitationIn,Events,Conditions,WindDirDegrees,DateUTC
12:35 AM,21.2,17.6,86,29.68,7.0,West,5.8,-,N/A,Snow,Light Snow,270,2013-03-12 05:35:00
1:15 AM,21.2,17.6,86,29.68,7.0,West,5.8,-,N/A,Snow,Light Snow,270,2013-03-12 06:15:00
1:35 AM,21.2,17.6,86,29.68,10.0,West,8.1,-,N/A,Snow,Light Snow,280,2013-03-12 06:35:00
1:55 AM,21.2,17.6,86,29.68,10.0,WNW,6.9,-,N/A,Snow,Light Snow,290,2013-03-12 06:55:00
2:15 AM,21.2,17.6,86,29.68,10.0,West,5.8,-,N/A,Snow,Light Snow,280,2013-03-12 07:15:00
2:35 AM,21.2,17.6,86,29.69,10.0,West,5.8,-,N/A,,Overcast,280,2013-03-12 07:35:00
2:55 AM,21.2,17.6,86,29.69,10.0,West,5.8,-,N/A,Snow,Light Snow,280,2013-03-12 07:55:00
3:15 AM,21.2,17.6,86,29.69,10.0,West,6.9,-,N/A,,Overcast,270,2013-03-12 08:15:00
3:35 AM,21.2,17.6,86,29.68,10.0,West,6.9,-,N/A,,Overcast,280,2013-03-12 08:35:00
3:55 AM,21.2,17.6,86,29.68,10.0,West,8.1,-,N/A,,Overcast,270,2013-03-12 08:55:00
4:15 AM,21.2,17.6,86,29.69,10.0,West,8.1,-,N/A,,Overcast,270,2013-03-12 09:15:00
4:35 AM,21.2,17.6,86,29.69,10.0,West,6.9,-,N/A,,Overcast,280,2013-03-12 09:35:00
4:55 AM,21.2,17.6,86,29.70,10.0,West,6.9,-,N/A,,Overcast,270,2013-03-12 09:55:00
5:15 AM,21.2,17.6,86,29.70,10.0,West,5.8,-,N/A,,Overcast,280,2013-03-12 10:15:00
5:35 AM,21.2,17.6,86,29.70,10.0,West,6.9,-,N/A,,Overcast,280,2013-03-12 10:35:00
5:55 AM,21.2,17.6,86,29.71,10.0,West,5.8,-,N/A,,Overcast,270,2013-03-12 10:55:00
6:15 AM,21.2,17.6,86,29.71,10.0,West,5.8,-,N/A,,Overcast,280,2013-03-12 11:15:00
6:35 AM,21.2,17.6,86,29.71,10.0,West,6.9,-,N/A,,Overcast,270,2013-03-12 11:35:00
6:55 AM,21.2,17.6,86,29.72,10.0,West,6.9,-,N/A,,Overcast,280,2013-03-12 11:55:00
7:15 AM,21.2,17.6,86,29.72,10.0,West,8.1,-,N/A,,Overcast,280,2013-03-12 12:15:00
7:35 AM,21.2,17.6,86,29.72,10.0,West,8.1,-,N/A,Snow,Light Snow,270,2013-03-12 12:35:00
7:55 AM,21.2,17.6,86,29.73,7.0,West,6.9,-,N/A,Snow,Light Snow,280,2013-03-12 12:55:00
8:15 AM,21.2,17.6,86,29.73,5.0,West,5.8,-,N/A,Snow,Light Snow,270,2013-03-12 13:15:00
8:35 AM,21.2,17.6,86,29.73,4.0,West,6.9,-,N/A,Snow,Light Snow,270,2013-03-12 13:35:00
8:55 AM,21.2,17.6,86,29.73,5.0,West,4.6,-,N/A,Snow,Light Snow,270,2013-03-12 13:55:00
9:15 AM,21.2,17.6,86,29.73,5.0,West,5.8,-,N/A,Snow,Light Snow,270,2013-03-12 14:15:00
9:35 AM,21.2,17.6,86,29.73,4.0,WNW,5.8,-,N/A,Snow,Light Snow,290,2013-03-12 14:35:00
9:55 AM,23.0,17.6,80,29.73,4.0,West,10.4,-,N/A,Snow,Light Snow,270,2013-03-12 14:55:00
10:15 AM,23.0,17.6,80,29.73,4.0,West,6.9,-,N/A,Snow,Light Snow,280,2013-03-12 15:15:00
10:35 AM,23.0,17.6,80,29.74,4.0,West,12.7,-,N/A,Snow,Light Snow,280,2013-03-12 15:35:00
10:55 AM,23.0,17.6,80,29.74,10.0,WNW,5.8,16.1,N/A,,Overcast,300,2013-03-12 15:55:00
11:15 AM,23.0,15.8,74,29.74,7.0,West,9.2,-,N/A,Snow,Light Snow,280,2013-03-12 16:15:00
11:35 AM,23.0,15.8,74,29.75,10.0,WNW,11.5,-,N/A,Snow,Light Snow,290,2013-03-12 16:35:00
11:55 AM,23.0,15.8,74,29.75,10.0,WNW,6.9,-,N/A,Snow,Light Snow,290,2013-03-12 16:55:00
12:15 PM,23.0,17.6,80,29.75,7.0,WNW,10.4,-,N/A,Snow,Light Snow,300,2013-03-12 17:15:00
12:35 PM,24.8,17.6,74,29.76,7.0,WNW,11.5,16.1,N/A,Snow,Light Snow,290,2013-03-12 17:35:00
12:55 PM,24.8,17.6,74,29.76,7.0,WNW,8.1,-,N/A,Snow,Light Snow,290,2013-03-12 17:55:00
1:15 PM,24.8,17.6,74,29.77,5.0,WNW,11.5,-,N/A,Snow,Light Snow,290,2013-03-12 18:15:00
1:35 PM,24.8,17.6,74,29.77,2.5,West,9.2,-,N/A,Snow,Light Snow,280,2013-03-12 18:35:00
1:55 PM,24.8,17.6,74,29.77,5.0,WNW,15.0,-,N/A,Snow,Light Snow,300,2013-03-12 18:55:00
2:15 PM,26.6,17.6,69,29.77,10.0,WNW,12.7,16.1,N/A,Snow,Light Snow,300,2013-03-12 19:15:00
2:35 PM,26.6,17.6,69,29.77,5.0,West,13.8,-,N/A,Snow,Light Snow,280,2013-03-12 19:35:00
2:55 PM,24.8,17.6,74,29.77,2.0,WNW,10.4,-,N/A,Snow,Light Snow,290,2013-03-12 19:55:00
3:15 PM,24.8,17.6,74,29.78,2.5,NW,9.2,-,N/A,Snow,Light Snow,310,2013-03-12 20:15:00
3:35 PM,24.8,17.6,74,29.79,5.0,West,12.7,-,N/A,Snow,Light Snow,280,2013-03-12 20:35:00
3:55 PM,24.8,19.4,80,29.79,1.8,NW,8.1,-,N/A,Snow,Light Snow,310,2013-03-12 20:55:00
4:15 PM,24.8,17.6,74,29.80,7.0,WNW,11.5,17.3,N/A,Snow,Light Snow,300,2013-03-12 21:15:00
4:35 PM,26.6,15.8,64,29.80,7.0,NW,13.8,18.4,N/A,,Overcast,310,2013-03-12 21:35:00
4:55 PM,23.0,17.6,80,29.81,2.5,WNW,10.4,21.9,N/A,Snow,Light Snow,300,2013-03-12 21:55:00
5:15 PM,23.0,17.6,80,29.83,7.0,NNW,12.7,18.4,N/A,Snow,Light Snow,330,2013-03-12 22:15:00
5:35 PM,23.0,14.0,68,29.83,10.0,NW,9.2,16.1,N/A,,Mostly Cloudy,320,2013-03-12 22:35:00
5:55 PM,21.2,14.0,74,29.85,3.0,NW,11.5,19.6,N/A,Snow,Light Snow,320,2013-03-12 22:55:00
6:15 PM,21.2,14.0,74,29.86,10.0,NNW,10.4,18.4,N/A,,Overcast,330,2013-03-12 23:15:00
6:35 PM,19.4,12.2,74,29.88,10.0,NNW,12.7,19.6,N/A,,Mostly Cloudy,340,2013-03-12 23:35:00
6:55 PM,19.4,12.2,74,29.88,7.0,NW,11.5,18.4,N/A,,Mostly Cloudy,320,2013-03-12 23:55:00
7:15 PM,19.4,12.2,74,29.90,7.0,WNW,9.2,-,N/A,Snow,Light Snow,300,2013-03-13 00:15:00
7:35 PM,19.4,12.2,74,29.90,4.0,NW,9.2,16.1,N/A,Snow,Light Snow,310,2013-03-13 00:35:00
7:55 PM,19.4,12.2,74,29.91,5.0,WNW,8.1,17.3,N/A,Snow,Light Snow,300,2013-03-13 00:55:00
8:15 PM,19.4,14.0,80,29.91,5.0,WNW,6.9,-,N/A,Snow,Light Snow,300,2013-03-13 01:15:00
8:35 PM,17.6,14.0,86,29.92,4.0,WNW,9.2,-,N/A,Snow,Light Snow,300,2013-03-13 01:35:00
8:55 PM,17.6,14.0,86,29.92,5.0,NW,8.1,-,N/A,Snow,Light Snow,310,2013-03-13 01:55:00
9:15 PM,17.6,14.0,86,29.93,4.0,WNW,6.9,-,N/A,Snow,Light Snow,300,2013-03-13 02:15:00
9:35 PM,17.6,14.0,86,29.93,2.5,WNW,4.6,-,N/A,Snow,Light Snow,300,2013-03-13 02:35:00
9:55 PM,17.6,14.0,86,29.94,3.0,NW,6.9,-,N/A,Snow,Light Snow,310,2013-03-13 02:55:00
10:15 PM,17.6,14.0,86,29.95,1.2,WNW,4.6,-,N/A,Snow,Light Snow,300,2013-03-13 03:15:00
10:35 PM,17.6,14.0,86,29.95,1.2,NW,4.6,-,N/A,Snow,Snow,310,2013-03-13 03:35:00
10:55 PM,17.6,15.8,93,29.95,1.2,WNW,3.5,-,N/A,Snow,Light Snow,290,2013-03-13 03:55:00
11:15 PM,17.6,15.8,93,29.96,1.2,WNW,3.5,-,N/A,Snow,Light Snow,290,2013-03-13 04:15:00
11:35 PM,17.6,15.8,93,29.97,2.5,WNW,5.8,-,N/A,Snow,Light Snow,300,2013-03-13 04:35:00
11:55 PM,19.4,15.8,86,29.97,3.0,NW,8.1,-,N/A,Snow,Light Snow,320,2013-03-13 04:55:00